createdAt,value
2022-11-09T00:01:06.416Z,99065.44
2022-11-09T00:03:34.460Z,99078.91
2022-11-09T00:06:05.847Z,99083.19
2022-11-09T00:08:33.750Z,99084.75
2022-11-09T00:11:04.898Z,99067.25
2022-11-09T00:13:33.323Z,99057.81
2022-11-09T00:16:02.236Z,99064.09
2022-11-09T00:18:30.471Z,99074.00
2022-11-09T00:21:00.828Z,99074.13
2022-11-09T00:23:46.409Z,99069.78
2022-11-09T00:26:21.110Z,99068.91
2022-11-09T00:28:50.107Z,99065.75
2022-11-09T00:31:20.130Z,99067.38
2022-11-09T00:33:50.740Z,99063.69
2022-11-09T00:36:20.080Z,99065.81
2022-11-09T00:38:52.265Z,99075.59
2022-11-09T00:41:20.919Z,99080.88
2022-11-09T00:43:49.882Z,99083.44
2022-11-09T00:46:18.336Z,99090.66
2022-11-09T00:48:46.948Z,99090.78
2022-11-09T00:51:15.054Z,99099.41
2022-11-09T00:53:43.741Z,99110.94
2022-11-09T00:56:13.811Z,99118.88
2022-11-09T00:58:42.093Z,99117.13
2022-11-09T01:01:40.929Z,99115.38
2022-11-09T01:04:08.879Z,99116.91
2022-11-09T01:06:36.899Z,99109.09
2022-11-09T01:09:05.029Z,99102.56
2022-11-09T01:11:34.504Z,99109.78
2022-11-09T01:14:02.825Z,99105.56
2022-11-09T01:16:31.172Z,99112.41
2022-11-09T01:19:00.163Z,99129.97
2022-11-09T01:21:29.125Z,99130.84
2022-11-09T01:23:58.494Z,99122.78
2022-11-09T01:26:26.737Z,99130.09
2022-11-09T01:28:56.011Z,99127.63
2022-11-09T01:31:31.270Z,99077.19
2022-11-09T01:33:59.163Z,99070.25
2022-11-09T01:36:27.225Z,99084.31
2022-11-09T01:38:55.206Z,99097.84
2022-11-09T01:41:25.814Z,99123.16
2022-11-09T01:44:12.900Z,99119.19
2022-11-09T01:46:46.782Z,99132.13
2022-11-09T01:49:23.724Z,99139.06
2022-11-09T01:51:57.509Z,99129.56
2022-11-09T01:54:28.496Z,99121.84
2022-11-09T01:57:00.788Z,99124.31
2022-11-09T01:59:35.035Z,99121.66
2022-11-09T02:02:03.612Z,99112.41
2022-11-09T02:04:36.160Z,99109.16
2022-11-09T02:07:04.683Z,99117.19
2022-11-09T02:09:39.828Z,99129.38
2022-11-09T02:12:08.799Z,99117.34
2022-11-09T02:14:40.155Z,99098.13
2022-11-09T02:17:09.089Z,99098.84
2022-11-09T02:19:36.964Z,99094.06
2022-11-09T02:22:06.340Z,99097.00
2022-11-09T02:24:34.948Z,99084.38
2022-11-09T02:27:02.926Z,99088.03
2022-11-09T02:29:40.669Z,99098.38
2022-11-09T02:32:14.269Z,99097.91
2022-11-09T02:34:42.364Z,99092.56
2022-11-09T02:37:11.900Z,99088.13
2022-11-09T02:39:40.515Z,99085.59
2022-11-09T02:42:18.373Z,99083.25
2022-11-09T02:44:52.383Z,99080.00
2022-11-09T02:47:20.514Z,99088.16
2022-11-09T02:49:48.398Z,99102.72
2022-11-09T02:52:17.914Z,99099.66
2022-11-09T02:54:45.923Z,99088.28
2022-11-09T02:57:13.934Z,99091.19
2022-11-09T02:59:42.093Z,99089.31
2022-11-09T03:02:10.088Z,99098.13
2022-11-09T03:04:38.087Z,99091.84
2022-11-09T03:07:06.192Z,99098.13
2022-11-09T03:09:35.499Z,99097.41
2022-11-09T03:12:23.676Z,99101.06
2022-11-09T03:14:51.715Z,99095.91
2022-11-09T03:17:19.669Z,99088.63
2022-11-09T03:19:48.033Z,99089.41
2022-11-09T03:22:15.973Z,99093.38
2022-11-09T03:24:45.279Z,99090.81
2022-11-09T03:27:13.769Z,99086.69
2022-11-09T03:29:41.695Z,99086.88
2022-11-09T03:32:09.613Z,99095.44
2022-11-09T03:34:37.807Z,99096.34
2022-11-09T03:37:06.019Z,99092.72
2022-11-09T03:39:34.327Z,99093.78
2022-11-09T03:42:03.706Z,99104.06
2022-11-09T03:44:31.717Z,99104.97
2022-11-09T03:46:59.676Z,99104.72
2022-11-09T03:49:27.637Z,99106.00
2022-11-09T03:51:55.548Z,99098.13
2022-11-09T03:54:23.427Z,99103.22
2022-11-09T03:56:51.341Z,99101.50
2022-11-09T03:59:20.762Z,99110.34
2022-11-09T04:01:48.760Z,99112.31
2022-11-09T04:04:18.953Z,99121.63
2022-11-09T04:06:46.976Z,99116.00
2022-11-09T04:09:15.178Z,99115.50
2022-11-09T04:11:43.070Z,99118.38
2022-11-09T04:14:11.007Z,99120.84
2022-11-09T04:16:40.455Z,99121.47
2022-11-09T04:19:08.593Z,99118.28
2022-11-09T04:21:36.786Z,99122.72
2022-11-09T04:24:04.884Z,99128.69
2022-11-09T04:26:32.791Z,99122.34
2022-11-09T04:29:00.995Z,99128.81
2022-11-09T04:31:28.874Z,99129.44
2022-11-09T04:33:58.352Z,99125.13
2022-11-09T04:36:26.464Z,99134.75
2022-11-09T04:38:54.381Z,99130.06
2022-11-09T04:41:22.444Z,99122.06
2022-11-09T04:43:50.391Z,99125.72
2022-11-09T04:46:18.431Z,99128.34
2022-11-09T04:48:48.956Z,99132.75
2022-11-09T04:51:18.497Z,99143.94
2022-11-09T04:53:46.592Z,99144.53
2022-11-09T04:56:14.746Z,99145.78
2022-11-09T04:58:42.865Z,99136.31
2022-11-09T05:01:13.145Z,99144.84
2022-11-09T05:03:41.653Z,99146.94
2022-11-09T05:06:24.187Z,99157.16
2022-11-09T05:08:54.073Z,99139.75
2022-11-09T05:11:25.547Z,99146.13
2022-11-09T05:13:53.937Z,99151.41
2022-11-09T05:16:23.105Z,99154.28
2022-11-09T05:18:51.690Z,99149.47
2022-11-09T05:21:19.708Z,99151.56
2022-11-09T05:23:59.221Z,99160.53
2022-11-09T05:26:34.092Z,99157.41
2022-11-09T05:29:03.677Z,99163.22
2022-11-09T05:31:32.023Z,99159.16
2022-11-09T05:34:00.464Z,99166.50
2022-11-09T05:36:30.551Z,99161.31
2022-11-09T05:38:59.043Z,99161.47
2022-11-09T05:41:27.530Z,99161.56
2022-11-09T05:43:56.972Z,99175.75
2022-11-09T05:46:25.262Z,99170.34
2022-11-09T05:48:53.539Z,99178.19
2022-11-09T05:51:21.496Z,99175.69
2022-11-09T05:53:49.473Z,99170.13
2022-11-09T05:56:17.766Z,99177.34
2022-11-09T05:58:45.650Z,99175.63
2022-11-09T06:01:16.924Z,99180.81
2022-11-09T06:03:44.872Z,99170.28
2022-11-09T06:06:17.590Z,99182.63
2022-11-09T06:08:45.546Z,99177.34
2022-11-09T06:11:21.555Z,99179.94
2022-11-09T06:13:51.643Z,99181.38
2022-11-09T06:16:23.641Z,99177.66
2022-11-09T06:18:51.589Z,99173.09
2022-11-09T06:21:19.759Z,99176.56
2022-11-09T06:23:47.699Z,99187.97
2022-11-09T06:26:15.601Z,99188.09
2022-11-09T06:28:43.792Z,99187.97
2022-11-09T06:31:14.264Z,99186.47
2022-11-09T06:33:44.053Z,99189.81
2022-11-09T06:36:12.578Z,99195.06
2022-11-09T06:38:40.674Z,99204.91
2022-11-09T06:41:08.569Z,99205.31
2022-11-09T06:43:36.700Z,99209.31
2022-11-09T06:46:06.099Z,99202.59
2022-11-09T06:48:34.138Z,99207.13
2022-11-09T06:51:06.462Z,99212.59
2022-11-09T06:53:37.865Z,99213.28
2022-11-09T06:56:07.161Z,99218.78
2022-11-09T06:58:35.365Z,99227.53
2022-11-09T07:01:08.867Z,99237.22
2022-11-09T07:03:37.036Z,99248.28
2022-11-09T07:06:08.415Z,99247.00
2022-11-09T07:08:37.125Z,99256.50
2022-11-09T07:11:06.706Z,99271.53
2022-11-09T07:13:34.859Z,99276.75
2022-11-09T07:16:03.067Z,99279.97
2022-11-09T07:18:31.097Z,99280.44
2022-11-09T07:20:59.036Z,99283.50
2022-11-09T07:23:28.484Z,99279.63
2022-11-09T07:25:59.154Z,99288.63
2022-11-09T07:28:27.070Z,99294.09
2022-11-09T07:30:54.961Z,99287.56
2022-11-09T07:33:23.942Z,99301.81
2022-11-09T07:35:52.235Z,99309.06
2022-11-09T07:38:20.719Z,99314.63
2022-11-09T07:40:50.077Z,99311.34
2022-11-09T07:43:18.836Z,99324.63
2022-11-09T07:45:47.021Z,99338.16
2022-11-09T07:48:16.279Z,99341.03
2022-11-09T07:50:44.323Z,99345.63
2022-11-09T07:53:14.348Z,99355.84
2022-11-09T07:55:43.263Z,99359.16
2022-11-09T07:58:14.942Z,99356.72
2022-11-09T08:00:44.073Z,99368.38
2022-11-09T08:03:12.115Z,99372.53
2022-11-09T08:05:43.122Z,99374.72
2022-11-09T08:08:13.029Z,99384.75
2022-11-09T08:10:41.254Z,99387.59
2022-11-09T08:13:13.518Z,99394.66
2022-11-09T08:15:42.399Z,99400.81
2022-11-09T08:18:14.466Z,99405.06
2022-11-09T08:20:42.711Z,99402.84
2022-11-09T08:23:13.492Z,99406.53
2022-11-09T08:25:42.184Z,99409.31
2022-11-09T08:28:15.017Z,99408.72
2022-11-09T08:30:43.328Z,99425.66
2022-11-09T08:33:12.007Z,99438.00
2022-11-09T08:35:40.142Z,99433.78
2022-11-09T08:38:08.226Z,99437.34
2022-11-09T08:40:36.228Z,99433.03
2022-11-09T08:43:05.892Z,99445.50
2022-11-09T08:45:37.106Z,99446.50
2022-11-09T08:48:05.963Z,99449.94
2022-11-09T08:50:35.616Z,99450.25
2022-11-09T08:53:05.515Z,99461.78
2022-11-09T08:55:33.597Z,99470.72
2022-11-09T08:58:03.660Z,99464.50
2022-11-09T09:00:32.002Z,99471.56
2022-11-09T09:03:04.696Z,99476.41
2022-11-09T09:05:32.938Z,99469.84
2022-11-09T09:08:01.363Z,99468.53
2022-11-09T09:10:32.287Z,99477.84
2022-11-09T09:13:01.619Z,99487.03
2022-11-09T09:15:29.768Z,99488.16
2022-11-09T09:18:00.004Z,99498.09
2022-11-09T09:20:30.082Z,99499.16
2022-11-09T09:22:59.334Z,99502.31
2022-11-09T09:25:27.269Z,99505.19
2022-11-09T09:27:55.346Z,99511.88
2022-11-09T09:30:23.564Z,99519.13
2022-11-09T09:32:51.544Z,99524.41
2022-11-09T09:35:19.457Z,99529.88
2022-11-09T09:37:51.330Z,99531.56
2022-11-09T09:40:25.865Z,99540.44
2022-11-09T09:42:56.060Z,99540.38
2022-11-09T09:45:29.273Z,99539.78
2022-11-09T09:48:01.989Z,99548.69
2022-11-09T09:50:37.684Z,99551.59
2022-11-09T09:53:24.168Z,99560.50
2022-11-09T09:55:57.350Z,99565.00
2022-11-09T09:58:27.530Z,99573.94
2022-11-09T10:01:01.001Z,99580.16
2022-11-09T10:03:29.062Z,99580.25
2022-11-09T10:06:02.923Z,99586.47
2022-11-09T10:08:43.942Z,99590.91
2022-11-09T10:11:23.249Z,99608.50
2022-11-09T10:14:12.976Z,99618.13
2022-11-09T10:16:48.040Z,99622.50
2022-11-09T10:19:31.038Z,99623.25
2022-11-09T10:22:05.031Z,99625.63
2022-11-09T10:24:58.680Z,99634.34
2022-11-09T10:27:38.356Z,99640.34
2022-11-09T10:30:15.434Z,99649.00
2022-11-09T10:32:45.708Z,99643.56
2022-11-09T10:35:20.240Z,99646.00
2022-11-09T10:37:50.190Z,99643.84
2022-11-09T10:40:24.092Z,99646.34
2022-11-09T10:42:55.571Z,99655.94
2022-11-09T10:45:30.739Z,99657.50
2022-11-09T10:48:00.163Z,99664.84
2022-11-09T10:50:33.578Z,99665.06
2022-11-09T10:53:19.214Z,99669.63
2022-11-09T10:55:57.061Z,99680.28
2022-11-09T10:58:37.516Z,99675.94
2022-11-09T11:01:13.126Z,99674.44
2022-11-09T11:03:42.342Z,99683.31
2022-11-09T11:06:17.404Z,99683.56
2022-11-09T11:08:47.022Z,99689.03
2022-11-09T11:11:38.679Z,99683.00
2022-11-09T11:14:22.840Z,99696.09
2022-11-09T11:16:53.159Z,99685.78
2022-11-09T11:19:35.022Z,99699.13
2022-11-09T11:22:24.058Z,99699.75
2022-11-09T11:24:57.308Z,99695.34
2022-11-09T11:27:38.061Z,99704.88
2022-11-09T11:30:12.595Z,99701.16
2022-11-09T11:32:44.264Z,99697.34
2022-11-09T11:35:19.870Z,99701.34
2022-11-09T11:38:00.489Z,99697.16
2022-11-09T11:40:33.355Z,99700.59
2022-11-09T11:43:27.470Z,99702.19
2022-11-09T11:46:05.875Z,99698.41
2022-11-09T11:49:06.672Z,99697.22
2022-11-09T11:51:47.347Z,99704.75
2022-11-09T11:54:23.897Z,99702.78
2022-11-09T11:57:01.066Z,99712.66
2022-11-09T11:59:52.365Z,99708.28
2022-11-09T12:02:47.694Z,99714.59
2022-11-09T12:05:38.189Z,99720.19
2022-11-09T12:08:13.751Z,99758.66
2022-11-09T12:10:52.633Z,99738.19
2022-11-09T12:13:43.460Z,99739.66
2022-11-09T12:16:26.691Z,99752.75
2022-11-09T12:19:11.192Z,99748.28
2022-11-09T12:21:52.366Z,99737.69
2022-11-09T12:24:29.381Z,99741.22
2022-11-09T12:27:31.768Z,99741.09
2022-11-09T12:30:06.841Z,99740.19
2022-11-09T12:32:45.418Z,99742.78
2022-11-09T12:35:25.860Z,99750.81
2022-11-09T12:38:00.337Z,99742.72
2022-11-09T12:40:32.361Z,99747.06
2022-11-09T12:43:05.763Z,99755.50
2022-11-09T12:45:36.411Z,99754.44
2022-11-09T12:48:12.946Z,99762.03
2022-11-09T12:50:44.448Z,99765.50
2022-11-09T12:53:13.340Z,99767.09
2022-11-09T12:55:52.458Z,99770.81
2022-11-09T12:58:23.812Z,99766.63
2022-11-09T13:00:56.030Z,99769.63
2022-11-09T13:03:28.750Z,99776.69
2022-11-09T13:06:14.040Z,99782.44
2022-11-09T13:08:44.602Z,99789.91
2022-11-09T13:11:30.386Z,99787.53
2022-11-09T13:14:30.436Z,99794.28
2022-11-09T13:16:59.505Z,99790.69
2022-11-09T13:19:55.503Z,99800.78
2022-11-09T13:23:02.051Z,99799.97
2022-11-09T13:25:51.034Z,99796.38
2022-11-09T13:29:09.687Z,99797.25
2022-11-09T13:32:24.962Z,99799.47
2022-11-09T13:34:55.680Z,99794.75
2022-11-09T13:37:54.943Z,99799.41
2022-11-09T13:40:48.465Z,99791.44
2022-11-09T13:43:27.483Z,99794.50
2022-11-09T13:45:57.781Z,99798.88
2022-11-09T13:48:35.818Z,99803.56
2022-11-09T13:51:07.228Z,99805.00
2022-11-09T13:53:55.038Z,99810.28
2022-11-09T13:56:32.951Z,99816.69
2022-11-09T13:59:08.907Z,99822.13
2022-11-09T14:01:46.861Z,99826.34
2022-11-09T14:04:26.866Z,99829.25
2022-11-09T14:07:04.621Z,99831.16
2022-11-09T14:09:43.822Z,99838.13
2022-11-09T14:12:27.724Z,99844.38
2022-11-09T14:15:14.762Z,99841.47
2022-11-09T14:17:52.672Z,99848.38
2022-11-09T14:20:30.275Z,99844.97
2022-11-09T14:23:02.097Z,99851.47
2022-11-09T14:25:34.759Z,99854.22
2022-11-09T14:28:03.138Z,99859.56
2022-11-09T14:30:32.585Z,99861.22
2022-11-09T14:33:00.700Z,99862.25
2022-11-09T14:35:32.283Z,99869.44
2022-11-09T14:38:03.919Z,99862.56
2022-11-09T14:40:33.776Z,99870.28
2022-11-09T14:43:04.662Z,99869.47
2022-11-09T14:45:33.110Z,99873.72
2022-11-09T14:48:01.542Z,99881.06
2022-11-09T14:50:32.705Z,99882.78
2022-11-09T14:53:04.425Z,99889.78
2022-11-09T14:55:34.650Z,99892.31
2022-11-09T14:58:04.150Z,99889.31
2022-11-09T15:00:35.973Z,99893.81
2022-11-09T15:03:27.261Z,99899.00
2022-11-09T15:06:05.817Z,99898.78
2022-11-09T15:08:37.330Z,99902.22
2022-11-09T15:11:05.638Z,99906.72
2022-11-09T15:13:36.292Z,99916.31
2022-11-09T15:16:05.772Z,99916.59
2022-11-09T15:18:38.140Z,99911.88
2022-11-09T15:21:18.355Z,99918.31
2022-11-09T15:23:49.098Z,99921.69
2022-11-09T15:26:30.433Z,99918.84
2022-11-09T15:28:58.427Z,99921.16
2022-11-09T15:31:59.069Z,99912.56
2022-11-09T15:34:38.061Z,99917.72
2022-11-09T15:37:19.551Z,99915.25
2022-11-09T15:39:48.927Z,99907.50
2022-11-09T15:42:17.047Z,99904.66
2022-11-09T15:44:51.929Z,99903.06
2022-11-09T15:47:27.794Z,99922.91
2022-11-09T15:49:55.768Z,99919.69
2022-11-09T15:52:23.713Z,99923.75
2022-11-09T15:54:53.051Z,99926.91
2022-11-09T15:57:21.873Z,99924.28
2022-11-09T15:59:51.868Z,99927.50
2022-11-09T16:02:20.191Z,99929.16
2022-11-09T16:04:48.157Z,99926.63
2022-11-09T16:07:19.096Z,99928.50
2022-11-09T16:09:47.245Z,99925.50
2022-11-09T16:12:16.748Z,99940.06
2022-11-09T16:14:44.747Z,99952.09
2022-11-09T16:17:15.491Z,99944.91
2022-11-09T16:19:49.453Z,99952.44
2022-11-09T16:22:17.391Z,99954.97
2022-11-09T16:24:47.189Z,99951.16
2022-11-09T16:27:47.768Z,99952.59
2022-11-09T16:30:08.293Z,99955.94
2022-11-09T16:32:37.786Z,99963.25
2022-11-09T16:35:27.807Z,99958.72
2022-11-09T16:37:57.175Z,99962.63
2022-11-09T16:40:29.122Z,99972.72
2022-11-09T16:43:01.934Z,99969.06
2022-11-09T16:45:33.313Z,99966.81
2022-11-09T16:48:05.113Z,99973.00
2022-11-09T16:50:35.624Z,99974.25
2022-11-09T16:53:03.919Z,99982.66
2022-11-09T16:55:39.394Z,99988.25
2022-11-09T16:58:09.051Z,99992.81
2022-11-09T17:01:03.977Z,99991.44
2022-11-09T17:03:25.025Z,100002.06
2022-11-09T17:05:53.043Z,100000.47
2022-11-09T17:08:23.908Z,100020.47
2022-11-09T17:10:52.136Z,100026.41
2022-11-09T17:13:21.514Z,100030.88
2022-11-09T17:15:51.881Z,100035.09
2022-11-09T17:18:20.206Z,100042.28
2022-11-09T17:20:50.779Z,100036.78
2022-11-09T17:23:20.084Z,100036.63
2022-11-09T17:25:58.568Z,100041.09
2022-11-09T17:28:28.955Z,100042.63
2022-11-09T17:30:57.524Z,100055.72
2022-11-09T17:33:25.884Z,100063.41
2022-11-09T17:36:00.073Z,100073.50
2022-11-09T17:38:29.212Z,100064.94
2022-11-09T17:41:02.751Z,100068.84
2022-11-09T17:43:35.991Z,100069.88
2022-11-09T17:46:04.949Z,100074.44
2022-11-09T17:48:33.624Z,100074.38
2022-11-09T17:51:02.142Z,100080.75
2022-11-09T17:53:31.058Z,100070.66
2022-11-09T17:55:59.203Z,100070.22
2022-11-09T17:58:27.262Z,100078.97
2022-11-09T18:00:56.754Z,100078.19
2022-11-09T18:03:25.589Z,100083.50
2022-11-09T18:05:53.560Z,100084.53
2022-11-09T18:08:21.759Z,100089.94
2022-11-09T18:10:51.451Z,100082.09
2022-11-09T18:13:19.562Z,100089.88
2022-11-09T18:15:47.617Z,100082.19
2022-11-09T18:18:18.066Z,100086.56
2022-11-09T18:20:46.149Z,100079.47
2022-11-09T18:23:14.357Z,100085.09
2022-11-09T18:25:42.285Z,100083.50
2022-11-09T18:28:13.578Z,100089.97
2022-11-09T18:30:42.744Z,100087.88
2022-11-09T18:33:10.806Z,100091.16
2022-11-09T18:35:40.119Z,100087.44
2022-11-09T18:38:19.923Z,100089.13
2022-11-09T18:40:58.173Z,100090.25
2022-11-09T18:43:26.102Z,100086.06
2022-11-09T18:45:58.483Z,100086.94
2022-11-09T18:48:27.130Z,100081.34
2022-11-09T18:50:58.130Z,100084.81
2022-11-09T18:53:27.589Z,100082.88
2022-11-09T18:56:06.098Z,100080.44
2022-11-09T18:58:36.027Z,100079.88
2022-11-09T19:01:06.201Z,100073.00
2022-11-09T19:03:34.718Z,100069.91
2022-11-09T19:06:08.036Z,100068.69
2022-11-09T19:08:53.703Z,100069.56
2022-11-09T19:11:21.823Z,100064.09
2022-11-09T19:13:52.590Z,100072.16
2022-11-09T19:16:21.817Z,100064.72
2022-11-09T19:18:50.343Z,100067.16
2022-11-09T19:21:36.178Z,100067.91
2022-11-09T19:24:04.847Z,100073.06
2022-11-09T19:26:33.147Z,100068.81
2022-11-09T19:29:01.332Z,100064.47
2022-11-09T19:31:30.399Z,100065.09
2022-11-09T19:33:58.573Z,100064.97
2022-11-09T19:36:31.717Z,100068.25
2022-11-09T19:39:01.151Z,100068.66
2022-11-09T19:41:31.831Z,100075.81
2022-11-09T19:44:00.558Z,100075.66
2022-11-09T19:46:31.066Z,100075.59
2022-11-09T19:48:59.563Z,100075.06
2022-11-09T19:51:29.396Z,100078.94
2022-11-09T19:54:00.622Z,100088.16
2022-11-09T19:56:30.767Z,100082.81
2022-11-09T19:59:02.064Z,100094.66
2022-11-09T20:01:31.733Z,100091.69
2022-11-09T20:04:07.705Z,100086.06
2022-11-09T20:06:38.720Z,100086.38
2022-11-09T20:09:08.635Z,100087.56
2022-11-09T20:11:54.452Z,100095.56
2022-11-09T20:14:22.531Z,100096.19
2022-11-09T20:16:51.063Z,100097.16
2022-11-09T20:19:19.143Z,100096.81
2022-11-09T20:21:49.063Z,100106.94
2022-11-09T20:24:18.697Z,100093.16
2022-11-09T20:26:46.626Z,100099.84
2022-11-09T20:29:14.911Z,100104.28
2022-11-09T20:31:43.332Z,100101.84
2022-11-09T20:34:11.268Z,100101.97
2022-11-09T20:36:39.424Z,100099.81
2022-11-09T20:39:07.604Z,100095.72
2022-11-09T20:41:36.920Z,100097.38
2022-11-09T20:44:05.046Z,100106.56
2022-11-09T20:46:36.551Z,100106.22
2022-11-09T20:49:05.154Z,100109.47
2022-11-09T20:51:33.272Z,100108.09
2022-11-09T20:54:06.804Z,100106.81
2022-11-09T20:56:37.869Z,100107.28
2022-11-09T20:59:06.222Z,100108.66
2022-11-09T21:01:34.421Z,100114.94
2022-11-09T21:04:02.819Z,100116.69
2022-11-09T21:06:31.333Z,100124.34
2022-11-09T21:09:01.491Z,100130.31
2022-11-09T21:11:35.681Z,100140.78
2022-11-09T21:14:05.085Z,100133.41
2022-11-09T21:16:33.066Z,100133.41
2022-11-09T21:19:01.171Z,100137.50
2022-11-09T21:21:35.030Z,100136.22
2022-11-09T21:24:24.485Z,100134.72
2022-11-09T21:27:10.111Z,100136.59
2022-11-09T21:29:51.971Z,100136.41
2022-11-09T21:32:21.496Z,100138.13
2022-11-09T21:34:50.089Z,100129.94
2022-11-09T21:37:18.235Z,100130.69
2022-11-09T21:39:46.443Z,100133.28
2022-11-09T21:42:14.524Z,100129.72
2022-11-09T21:44:43.935Z,100129.56
2022-11-09T21:47:12.041Z,100126.69
2022-11-09T21:49:39.998Z,100133.06
2022-11-09T21:52:08.314Z,100138.59
2022-11-09T21:54:36.220Z,100142.22
2022-11-09T21:57:04.285Z,100135.28
2022-11-09T21:59:32.324Z,100144.78
2022-11-09T22:02:01.768Z,100149.16
2022-11-09T22:04:29.805Z,100153.19
2022-11-09T22:06:57.829Z,100153.66
2022-11-09T22:09:27.691Z,100162.06
2022-11-09T22:12:26.584Z,100160.19
2022-11-09T22:15:11.899Z,100169.28
2022-11-09T22:17:41.269Z,100162.81
2022-11-09T22:20:28.178Z,100166.56
2022-11-09T22:22:56.234Z,100174.19
2022-11-09T22:25:24.168Z,100173.25
2022-11-09T22:27:52.417Z,100178.22
2022-11-09T22:30:20.543Z,100180.41
2022-11-09T22:32:49.857Z,100183.38
2022-11-09T22:35:17.999Z,100181.06
2022-11-09T22:37:45.931Z,100187.25
2022-11-09T22:40:14.072Z,100191.06
2022-11-09T22:42:42.211Z,100193.22
2022-11-09T22:45:10.961Z,100199.47
2022-11-09T22:47:39.081Z,100189.88
2022-11-09T22:50:09.147Z,100189.56
2022-11-09T22:52:37.288Z,100191.00
2022-11-09T22:55:05.698Z,100180.44
2022-11-09T22:57:34.149Z,100183.78
2022-11-09T23:00:02.072Z,100187.47
2022-11-09T23:02:30.356Z,100192.34
2022-11-09T23:04:58.409Z,100195.22
2022-11-09T23:07:27.666Z,100184.38
2022-11-09T23:09:55.721Z,100189.84
2022-11-09T23:12:23.717Z,100201.06
2022-11-09T23:15:06.799Z,100196.22
2022-11-09T23:17:53.675Z,100206.97
2022-11-09T23:20:22.819Z,100206.28
2022-11-09T23:22:52.268Z,100202.28
2022-11-09T23:25:37.479Z,100204.69
2022-11-09T23:28:05.989Z,100195.41
2022-11-09T23:30:33.986Z,100198.34
2022-11-09T23:33:02.763Z,100198.84
2022-11-09T23:35:30.683Z,100199.41
2022-11-09T23:38:00.870Z,100203.81
2022-11-09T23:40:29.349Z,100190.41
2022-11-09T23:43:01.115Z,100195.00
2022-11-09T23:45:29.034Z,100195.50
2022-11-09T23:47:57.190Z,100194.13
2022-11-09T23:50:25.438Z,100190.34
2022-11-09T23:52:53.446Z,100190.69
2022-11-09T23:55:23.271Z,100197.88
2022-11-09T23:57:51.532Z,100195.59
